Главная страница
METAR-TAF:

METAR-TAF

Аэропорты :

Хитроу

Лондон-Хитроу, Англия

широта: 51-29N, долгота: 000-27W, высота над уровнем моря: 24 м

Текущие метеонаблюдения

Эта сводка был подготовлена 15 минут назад, в 13:20 UTC
Ветер 10 Узел от западный
Температура 25°C
Влажность 44%
Давление 1016 hPa
Видимость 10 км и более
Рассеянная облачность на высоте 4500 фута

METAR: EGLL 141320Z AUTO 28010KT 9999 BKN045 25/12 Q1016 NOSIG

Время: 14:35 (13:35 UTC)

Прогноз

Эта сводка был подготовлена 2 часа и 43 минут назад, в 10:52 UTC
Прогноз действительный с 14-го 12 UTC до 15-го 18 UTC
Ветер 8 Узел от западный
Видимость 10 км и более
Отдельные облака на высоте 4000 фута
Вероятность 30% :
временами
С 15-го 02 UTC до 15-го 09 UTC
Рассеянная облачность на высоте 1200 фута

TAF: EGLL 141052Z 1412/1518 27008KT 9999 SCT040 PROB30 TEMPO 1502/1509 BKN012

Метеонаблюдения и прогнозы для более 4000 аэропортов (сводки METAR и TAF).

Имеющиеся станции представлены на карте желтыми и красными точками.

Чтобы увидеть название станции, наведите на нее мышь.

Затем щелкните, чтобы увидеть метеонаблюдения и метеопрогнозы.

Управление картой: чтобы увеличить масштаб, щелкните зеленые кнопки с черным крестиком; чтобы уменьшить масштаб, щелкните зеленую кнопку с тире; для просмотра соседних карт щелкайте зеленые стрелки.


METAR-TAF: